createdAt,value
2023-03-06T00:01:18.314Z,100341.13
2023-03-06T00:03:57.196Z,100347.53
2023-03-06T00:06:43.919Z,100348.28
2023-03-06T00:09:20.750Z,100355.00
2023-03-06T00:11:58.214Z,100325.47
2023-03-06T00:14:40.015Z,100326.56
2023-03-06T00:17:22.522Z,100351.72
2023-03-06T00:20:02.210Z,100340.22
2023-03-06T00:22:45.014Z,100342.06
2023-03-06T00:25:26.075Z,100321.41
2023-03-06T00:28:01.573Z,100340.44
2023-03-06T00:30:41.730Z,100343.88
2023-03-06T00:36:06.482Z,100341.38
2023-03-06T00:38:54.007Z,100329.56
2023-03-06T00:41:33.870Z,100330.88
2023-03-06T00:44:15.387Z,100321.94
2023-03-06T00:47:05.925Z,100336.34
2023-03-06T00:49:39.131Z,100336.00
2023-03-06T00:52:18.424Z,100339.97
2023-03-06T00:54:58.797Z,100329.75
2023-03-06T00:57:41.361Z,100322.19
2023-03-06T01:00:27.722Z,100327.78
2023-03-06T01:03:02.049Z,100315.16
2023-03-06T01:05:43.977Z,100314.09
2023-03-06T01:08:30.473Z,100314.84
2023-03-06T01:11:14.822Z,100306.56
2023-03-06T01:13:58.332Z,100300.59
2023-03-06T01:16:35.634Z,100301.09
2023-03-06T01:19:13.268Z,100299.41
2023-03-06T01:21:53.538Z,100298.88
2023-03-06T01:24:33.322Z,100299.31
2023-03-06T01:27:26.362Z,100297.88
2023-03-06T01:30:02.693Z,100287.66
2023-03-06T01:32:43.044Z,100292.69
2023-03-06T01:35:20.995Z,100298.25
2023-03-06T01:37:57.421Z,100296.53
2023-03-06T01:40:39.971Z,100298.97
2023-03-06T01:43:41.900Z,100293.03
2023-03-06T01:46:43.670Z,100292.69
2023-03-06T01:49:49.506Z,100295.09
2023-03-06T01:52:26.237Z,100261.56
2023-03-06T01:55:07.784Z,100282.28
2023-03-06T01:57:51.445Z,100268.28
2023-03-06T02:00:32.696Z,100283.31
2023-03-06T02:03:15.498Z,100292.13
2023-03-06T02:05:55.154Z,100281.66
2023-03-06T02:08:32.421Z,100291.72
2023-03-06T02:11:22.390Z,100291.19
2023-03-06T02:14:02.323Z,100289.00
2023-03-06T02:16:50.286Z,100256.22
2023-03-06T02:19:42.354Z,100289.72
2023-03-06T02:22:22.198Z,100289.47
2023-03-06T02:25:09.875Z,100292.16
2023-03-06T02:27:51.895Z,100287.88
2023-03-06T02:30:35.500Z,100285.69
2023-03-06T02:33:15.313Z,100284.00
2023-03-06T02:35:57.275Z,100295.13
2023-03-06T02:38:41.244Z,100293.91
2023-03-06T02:41:20.585Z,100303.50
2023-03-06T02:44:07.699Z,100295.31
2023-03-06T02:46:53.154Z,100292.63
2023-03-06T02:49:31.053Z,100299.25
2023-03-06T02:52:08.313Z,100298.69
2023-03-06T02:54:43.397Z,100296.53
2023-03-06T02:57:28.228Z,100304.97
2023-03-06T03:00:16.510Z,100297.00
2023-03-06T03:02:54.979Z,100290.84
2023-03-06T03:05:51.184Z,100290.31
2023-03-06T03:11:24.435Z,100280.09
2023-03-06T03:14:03.835Z,100288.59
2023-03-06T03:16:53.134Z,100291.75
2023-03-06T03:19:35.402Z,100281.63
2023-03-06T03:22:19.421Z,100281.31
2023-03-06T03:24:54.886Z,100268.16
2023-03-06T03:27:30.043Z,100274.50
2023-03-06T03:30:08.882Z,100272.44
2023-03-06T03:32:54.315Z,100278.25
2023-03-06T03:35:31.452Z,100264.06
2023-03-06T03:38:10.484Z,100273.66
2023-03-06T03:40:46.917Z,100266.16
2023-03-06T03:43:28.849Z,100259.38
2023-03-06T03:46:11.950Z,100271.47
2023-03-06T03:48:59.735Z,100273.66
2023-03-06T03:51:40.819Z,100272.03
2023-03-06T03:54:19.087Z,100271.78
2023-03-06T03:57:02.547Z,100254.38
2023-03-06T03:59:41.764Z,100271.38
2023-03-06T04:02:41.815Z,100274.59
2023-03-06T04:05:38.593Z,100260.25
2023-03-06T04:08:27.510Z,100246.75
2023-03-06T04:11:07.860Z,100263.81
2023-03-06T04:13:46.116Z,100259.53
2023-03-06T04:16:36.064Z,100270.19
2023-03-06T04:19:25.947Z,100261.88
2023-03-06T04:22:02.481Z,100265.50
2023-03-06T04:24:47.853Z,100258.56
2023-03-06T04:27:28.358Z,100257.59
2023-03-06T04:30:10.763Z,100266.38
2023-03-06T04:33:05.248Z,100265.56
2023-03-06T04:35:42.842Z,100210.78
2023-03-06T04:38:37.492Z,100259.53
2023-03-06T04:41:17.816Z,100260.25
2023-03-06T04:44:01.593Z,100260.03
2023-03-06T04:46:42.667Z,100258.41
2023-03-06T04:49:17.765Z,100242.53
2023-03-06T04:51:50.933Z,100232.94
2023-03-06T04:54:30.103Z,100236.09
2023-03-06T04:57:04.200Z,100239.22
2023-03-06T04:59:42.430Z,100238.09
2023-03-06T05:02:18.264Z,100230.50
2023-03-06T05:04:57.758Z,100230.66
2023-03-06T05:07:51.709Z,100234.03
2023-03-06T05:10:27.053Z,100213.66
2023-03-06T05:13:07.950Z,100226.22
2023-03-06T05:15:46.997Z,100231.28
2023-03-06T05:18:23.125Z,100232.09
2023-03-06T05:21:02.360Z,100240.66
2023-03-06T05:23:43.351Z,100240.06
2023-03-06T05:29:17.205Z,100239.84
2023-03-06T05:31:55.701Z,100235.88
2023-03-06T05:34:31.786Z,100243.84
2023-03-06T05:37:06.996Z,100242.56
2023-03-06T05:39:58.021Z,100214.72
2023-03-06T05:42:52.916Z,100241.72
2023-03-06T05:45:33.374Z,100240.69
2023-03-06T05:48:16.515Z,100244.38
2023-03-06T05:51:06.239Z,100243.56
2023-03-06T05:53:42.962Z,100255.09
2023-03-06T05:56:20.864Z,100261.53
2023-03-06T05:59:09.784Z,100260.00
2023-03-06T06:01:45.489Z,100238.09
2023-03-06T06:04:33.562Z,100240.84
2023-03-06T06:07:08.027Z,100251.66
2023-03-06T06:09:40.221Z,100247.19
2023-03-06T06:12:17.649Z,100242.47
2023-03-06T06:15:04.616Z,100217.56
2023-03-06T06:17:46.685Z,100255.75
2023-03-06T06:20:24.319Z,100245.13
2023-03-06T06:22:56.167Z,100252.13
2023-03-06T06:25:34.192Z,100233.78
2023-03-06T06:28:08.652Z,100212.19
2023-03-06T06:30:56.315Z,100252.50
2023-03-06T06:33:30.565Z,100242.44
2023-03-06T06:36:09.566Z,100251.13
2023-03-06T06:38:46.885Z,100255.06
2023-03-06T06:41:50.633Z,100253.50
2023-03-06T06:44:22.065Z,100256.06
2023-03-06T06:47:24.530Z,100258.31
2023-03-06T06:50:03.960Z,100251.81
2023-03-06T06:52:43.860Z,100214.91
2023-03-06T06:55:19.880Z,100249.38
2023-03-06T06:58:01.332Z,100262.81
2023-03-06T07:00:40.230Z,100256.78
2023-03-06T07:03:30.137Z,100260.38
2023-03-06T07:06:07.709Z,100262.56
2023-03-06T07:08:39.405Z,100251.66
2023-03-06T07:11:29.114Z,100268.03
2023-03-06T07:14:09.312Z,100267.09
2023-03-06T07:16:44.220Z,100268.72
2023-03-06T07:19:29.697Z,100271.50
2023-03-06T07:22:24.174Z,100273.94
2023-03-06T07:25:00.771Z,100260.94
2023-03-06T07:27:42.572Z,100272.22
2023-03-06T07:30:18.518Z,100270.94
2023-03-06T07:32:55.856Z,100272.31
2023-03-06T07:35:45.245Z,100276.94
2023-03-06T07:38:24.664Z,100253.19
2023-03-06T07:41:01.084Z,100280.22
2023-03-06T07:43:35.805Z,100258.34
2023-03-06T07:46:20.860Z,100275.78
2023-03-06T07:48:57.807Z,100277.91
2023-03-06T07:51:36.473Z,100271.53
2023-03-06T07:54:14.990Z,100273.69
2023-03-06T07:56:46.836Z,100256.34
2023-03-06T07:59:21.326Z,100263.59
2023-03-06T08:01:57.237Z,100264.72
2023-03-06T08:04:36.226Z,100259.13
2023-03-06T08:07:20.970Z,100273.31
2023-03-06T08:09:58.733Z,100264.78
2023-03-06T08:12:39.097Z,100260.28
2023-03-06T08:15:26.549Z,100253.34
2023-03-06T08:18:10.697Z,100259.53
2023-03-06T08:20:43.219Z,100259.00
2023-03-06T08:23:33.991Z,100249.63
2023-03-06T08:26:13.086Z,100251.22
2023-03-06T08:28:51.163Z,100255.25
2023-03-06T08:31:31.761Z,100260.03
2023-03-06T08:34:09.973Z,100240.25
2023-03-06T08:36:52.596Z,100238.31
2023-03-06T08:39:40.566Z,100216.66
2023-03-06T08:42:20.844Z,100240.44
2023-03-06T08:45:01.053Z,100240.69
2023-03-06T08:47:39.579Z,100241.19
2023-03-06T08:50:32.556Z,100236.13
2023-03-06T08:53:10.679Z,100237.72
2023-03-06T08:56:05.559Z,100236.38
2023-03-06T08:58:46.629Z,100221.34
2023-03-06T09:01:25.103Z,100219.69
2023-03-06T09:03:59.583Z,100216.44
2023-03-06T09:06:40.957Z,100220.72
2023-03-06T09:09:21.135Z,100222.31
2023-03-06T09:12:01.138Z,100186.19
2023-03-06T09:14:40.891Z,100218.81
2023-03-06T09:17:17.495Z,100202.41
2023-03-06T09:19:55.372Z,100202.41
2023-03-06T09:22:42.716Z,100208.25
2023-03-06T09:25:24.209Z,100149.72
2023-03-06T09:28:11.338Z,100194.78
2023-03-06T09:30:54.481Z,100191.25
2023-03-06T09:33:29.527Z,100192.00
2023-03-06T09:36:11.273Z,100192.00
2023-03-06T09:38:48.342Z,100178.50
2023-03-06T09:41:38.721Z,100179.19
2023-03-06T09:44:29.053Z,100172.16
2023-03-06T09:48:02.490Z,100172.84
2023-03-06T09:50:55.551Z,100168.66
2023-03-06T09:53:46.305Z,100173.03
2023-03-06T09:56:23.596Z,100160.00
2023-03-06T09:59:04.946Z,100166.50
2023-03-06T10:01:58.769Z,100166.38
2023-03-06T10:04:42.864Z,100163.41
2023-03-06T10:07:26.889Z,100163.47
2023-03-06T10:10:11.972Z,100170.38
2023-03-06T10:13:04.755Z,100160.16
2023-03-06T10:15:43.698Z,100164.50
2023-03-06T10:21:51.495Z,100161.06
2023-03-06T10:25:04.626Z,100152.41
2023-03-06T10:27:52.998Z,100153.91
2023-03-06T10:30:50.939Z,100151.44
2023-03-06T10:33:47.128Z,100149.97
2023-03-06T10:36:25.706Z,100148.75
2023-03-06T10:39:07.809Z,100132.84
2023-03-06T10:41:45.296Z,100141.34
2023-03-06T10:44:29.168Z,100135.38
2023-03-06T10:47:08.105Z,100135.22
2023-03-06T10:50:06.674Z,100137.25
2023-03-06T10:52:44.032Z,100121.72
2023-03-06T10:55:41.843Z,100110.59
2023-03-06T10:58:30.609Z,100110.09
2023-03-06T11:01:12.538Z,100103.53
2023-03-06T11:03:58.076Z,100092.78
2023-03-06T11:06:44.146Z,100092.09
2023-03-06T11:09:26.018Z,100076.94
2023-03-06T11:12:28.343Z,100053.03
2023-03-06T11:15:22.698Z,100057.44
2023-03-06T11:18:09.273Z,100047.94
2023-03-06T11:20:56.940Z,100038.94
2023-03-06T11:24:15.226Z,100039.22
2023-03-06T11:27:08.625Z,100037.78
2023-03-06T11:29:48.169Z,100034.13
2023-03-06T11:32:36.311Z,100028.75
2023-03-06T11:35:29.879Z,100028.44
2023-03-06T11:38:15.720Z,100018.56
2023-03-06T11:41:04.387Z,100017.44
2023-03-06T11:43:42.792Z,100020.94
2023-03-06T11:46:25.577Z,100008.38
2023-03-06T11:49:12.545Z,99998.84
2023-03-06T11:51:55.141Z,100003.50
2023-03-06T11:54:32.454Z,99990.69
2023-03-06T11:57:26.875Z,99989.09
2023-03-06T12:00:23.747Z,99973.81
2023-03-06T12:03:30.807Z,99976.88
2023-03-06T12:06:20.055Z,99981.69
2023-03-06T12:09:10.156Z,99979.41
2023-03-06T12:11:50.576Z,99970.22
2023-03-06T12:14:54.185Z,99970.69
2023-03-06T12:18:00.658Z,99955.66
2023-03-06T12:21:11.071Z,99957.06
2023-03-06T12:24:07.368Z,99953.91
2023-03-06T12:27:02.968Z,99943.72
2023-03-06T12:30:02.397Z,99941.69
2023-03-06T12:32:59.379Z,99942.81
2023-03-06T12:36:24.990Z,99937.47
2023-03-06T12:39:24.483Z,99941.59
2023-03-06T12:42:47.725Z,99941.28
2023-03-06T12:45:34.224Z,99937.50
2023-03-06T12:48:08.880Z,99933.56
2023-03-06T12:50:57.340Z,99930.72
2023-03-06T12:53:32.954Z,99932.75
2023-03-06T12:56:07.950Z,99925.13
2023-03-06T12:58:55.558Z,99923.69
2023-03-06T13:02:09.241Z,99916.81
2023-03-06T13:05:10.978Z,99912.69
2023-03-06T13:08:05.264Z,99912.38
2023-03-06T13:10:42.926Z,99908.91
2023-03-06T13:13:34.986Z,99897.66
2023-03-06T13:16:28.925Z,99901.97
2023-03-06T13:19:23.272Z,99898.47
2023-03-06T13:22:22.116Z,99902.91
2023-03-06T13:25:40.030Z,99899.25
2023-03-06T13:28:30.341Z,99888.44
2023-03-06T13:31:18.112Z,99895.75
2023-03-06T13:34:09.876Z,99892.25
2023-03-06T13:36:45.303Z,99892.72
2023-03-06T13:39:26.825Z,99891.75
2023-03-06T13:42:02.937Z,99887.00
2023-03-06T13:44:55.336Z,99873.19
2023-03-06T13:48:14.195Z,99868.25
2023-03-06T13:50:45.627Z,99858.38
2023-03-06T13:54:07.756Z,99858.72
2023-03-06T13:57:40.559Z,99858.41
2023-03-06T14:01:04.491Z,99853.13
2023-03-06T14:04:09.247Z,99850.13
2023-03-06T14:07:13.132Z,99837.09
2023-03-06T14:10:06.084Z,99841.22
2023-03-06T14:12:48.064Z,99848.88
2023-03-06T14:15:28.444Z,99839.16
2023-03-06T14:18:05.942Z,99835.66
2023-03-06T14:20:49.806Z,99833.44
2023-03-06T14:23:44.020Z,99830.25
2023-03-06T14:26:23.333Z,99829.94
2023-03-06T14:29:06.625Z,99813.88
2023-03-06T14:31:46.383Z,99827.41
2023-03-06T14:34:27.811Z,99833.91
2023-03-06T14:37:08.032Z,99830.56
2023-03-06T14:39:50.327Z,99825.16
2023-03-06T14:42:24.318Z,99836.16
2023-03-06T14:45:28.125Z,99831.38
2023-03-06T14:48:08.488Z,99832.16
2023-03-06T14:50:49.481Z,99830.91
2023-03-06T14:53:23.904Z,99831.69
2023-03-06T14:56:06.446Z,99827.09
2023-03-06T14:58:48.413Z,99822.94
2023-03-06T15:01:45.842Z,99814.97
2023-03-06T15:04:35.271Z,99815.47
2023-03-06T15:07:16.844Z,99821.66
2023-03-06T15:09:53.808Z,99816.13
2023-03-06T15:12:46.466Z,99819.78
2023-03-06T15:19:03.234Z,99799.59
2023-03-06T15:21:43.206Z,99796.44
2023-03-06T15:24:39.137Z,99794.81
2023-03-06T15:27:25.646Z,99799.28
2023-03-06T15:30:05.644Z,99789.56
2023-03-06T15:32:52.227Z,99793.06
2023-03-06T15:35:53.068Z,99791.13
2023-03-06T15:38:40.273Z,99787.16
2023-03-06T15:41:24.821Z,99789.41
2023-03-06T15:44:03.427Z,99792.88
2023-03-06T15:46:38.347Z,99797.84
2023-03-06T15:49:24.003Z,99789.44
2023-03-06T15:52:09.542Z,99794.84
2023-03-06T15:54:44.823Z,99786.88
2023-03-06T15:57:25.649Z,99788.78
2023-03-06T15:59:56.691Z,99784.50
2023-03-06T16:02:31.837Z,99787.97
2023-03-06T16:05:03.189Z,99790.22
2023-03-06T16:07:49.675Z,99779.41
2023-03-06T16:10:30.089Z,99782.56
2023-03-06T16:13:13.349Z,99781.25
2023-03-06T16:15:57.570Z,99776.81
2023-03-06T16:18:27.941Z,99770.41
2023-03-06T16:21:02.275Z,99778.34
2023-03-06T16:23:50.910Z,99769.94
2023-03-06T16:29:32.006Z,99776.09
2023-03-06T16:32:06.873Z,99770.34
2023-03-06T16:34:39.342Z,99762.88
2023-03-06T16:37:19.666Z,99765.72
2023-03-06T16:40:07.034Z,99758.09
2023-03-06T16:42:42.367Z,99761.41
2023-03-06T16:45:21.391Z,99764.09
2023-03-06T16:47:54.701Z,99755.34
2023-03-06T16:50:32.205Z,99765.03
2023-03-06T16:53:16.183Z,99768.03
2023-03-06T16:56:00.357Z,99759.16
2023-03-06T16:58:38.218Z,99761.03
2023-03-06T17:01:12.045Z,99737.84
2023-03-06T17:03:47.649Z,99754.84
2023-03-06T17:06:21.064Z,99745.59
2023-03-06T17:08:59.728Z,99759.25
2023-03-06T17:11:46.122Z,99760.19
2023-03-06T17:14:24.304Z,99760.03
2023-03-06T17:16:59.263Z,99766.50
2023-03-06T17:19:31.054Z,99767.59
2023-03-06T17:22:07.233Z,99764.22
2023-03-06T17:24:47.597Z,99773.72
2023-03-06T17:27:31.070Z,99765.69
2023-03-06T17:30:07.344Z,99779.31
2023-03-06T17:32:37.766Z,99787.97
2023-03-06T17:35:15.888Z,99781.91
2023-03-06T17:37:50.008Z,99781.75
2023-03-06T17:40:31.921Z,99772.84
2023-03-06T17:43:06.105Z,99765.34
2023-03-06T17:45:55.708Z,99770.69
2023-03-06T17:48:28.260Z,99764.56
2023-03-06T17:51:06.140Z,99773.50
2023-03-06T17:53:37.093Z,99765.50
2023-03-06T17:56:18.522Z,99764.31
2023-03-06T17:59:02.532Z,99767.38
2023-03-06T18:01:41.201Z,99772.22
2023-03-06T18:04:22.022Z,99768.44
2023-03-06T18:07:02.753Z,99755.88
2023-03-06T18:09:32.816Z,99766.44
2023-03-06T18:12:07.536Z,99761.66
2023-03-06T18:14:43.320Z,99768.72
2023-03-06T18:17:16.909Z,99762.75
2023-03-06T18:19:54.387Z,99765.47
2023-03-06T18:22:45.046Z,99763.78
2023-03-06T18:25:19.700Z,99772.28
2023-03-06T18:27:57.931Z,99764.03
2023-03-06T18:30:36.126Z,99770.50
2023-03-06T18:33:10.261Z,99772.69
2023-03-06T18:35:44.341Z,99758.34
2023-03-06T18:38:17.901Z,99753.03
2023-03-06T18:40:55.487Z,99760.75
2023-03-06T18:43:31.333Z,99757.97
2023-03-06T18:46:17.821Z,99762.84
2023-03-06T18:48:52.811Z,99768.59
2023-03-06T18:51:29.286Z,99760.47
2023-03-06T18:54:02.891Z,99760.06
2023-03-06T18:56:38.695Z,99770.84
2023-03-06T18:59:10.859Z,99748.06
2023-03-06T19:01:49.797Z,99739.56
2023-03-06T19:04:23.865Z,99736.91
2023-03-06T19:07:00.248Z,99723.50
2023-03-06T19:09:31.991Z,99727.41
2023-03-06T19:12:07.144Z,99714.66
2023-03-06T19:14:44.340Z,99730.59
2023-03-06T19:17:22.847Z,99724.25
2023-03-06T19:19:58.984Z,99724.72
2023-03-06T19:22:37.691Z,99729.63
2023-03-06T19:25:09.896Z,99721.56
2023-03-06T19:27:49.789Z,99718.88
2023-03-06T19:30:25.854Z,99702.53
2023-03-06T19:33:10.615Z,99724.63
2023-03-06T19:35:45.419Z,99724.63
2023-03-06T19:38:28.896Z,99734.56
2023-03-06T19:41:07.119Z,99740.28
2023-03-06T19:43:47.081Z,99711.41
2023-03-06T19:46:27.033Z,99714.09
2023-03-06T19:49:16.320Z,99715.66
2023-03-06T19:51:51.227Z,99715.38
2023-03-06T19:54:23.847Z,99716.19
2023-03-06T19:57:06.325Z,99728.53
2023-03-06T19:59:40.533Z,99733.81
2023-03-06T20:02:26.731Z,99741.59
2023-03-06T20:05:03.180Z,99737.59
2023-03-06T20:07:35.662Z,99731.22
2023-03-06T20:10:09.410Z,99748.16
2023-03-06T20:13:00.757Z,99746.97
2023-03-06T20:15:35.263Z,99735.59
2023-03-06T20:18:20.505Z,99741.19
2023-03-06T20:21:10.593Z,99723.28
2023-03-06T20:23:45.687Z,99735.81
2023-03-06T20:26:20.481Z,99746.16
2023-03-06T20:28:55.640Z,99739.50
2023-03-06T20:31:30.963Z,99747.25
2023-03-06T20:34:06.171Z,99744.88
2023-03-06T20:36:50.861Z,99741.78
2023-03-06T20:39:28.717Z,99747.53
2023-03-06T20:42:00.912Z,99751.28
2023-03-06T20:44:36.373Z,99755.25
2023-03-06T20:47:14.270Z,99764.56
2023-03-06T20:49:51.535Z,99762.56
2023-03-06T20:52:32.096Z,99769.06
2023-03-06T20:55:07.373Z,99767.28
2023-03-06T20:57:42.233Z,99760.63
2023-03-06T21:00:21.117Z,99771.91
2023-03-06T21:03:00.393Z,99761.84
2023-03-06T21:05:31.046Z,99762.38
2023-03-06T21:08:09.274Z,99761.19
2023-03-06T21:10:51.512Z,99762.28
2023-03-06T21:13:25.282Z,99753.94
2023-03-06T21:15:59.986Z,99752.78
2023-03-06T21:18:32.445Z,99753.78
2023-03-06T21:21:04.436Z,99752.19
2023-03-06T21:23:43.921Z,99754.97
2023-03-06T21:26:16.264Z,99753.38
2023-03-06T21:28:53.856Z,99762.16
2023-03-06T21:31:33.580Z,99769.81
2023-03-06T21:34:14.336Z,99762.16
2023-03-06T21:36:48.778Z,99766.25
2023-03-06T21:39:35.561Z,99773.28
2023-03-06T21:42:10.875Z,99781.06
2023-03-06T21:44:44.864Z,99765.44
2023-03-06T21:47:28.571Z,99794.81
2023-03-06T21:50:08.721Z,99795.44
2023-03-06T21:52:54.447Z,99787.16
2023-03-06T21:55:49.667Z,99792.50
2023-03-06T21:58:27.469Z,99791.09
2023-03-06T22:01:11.937Z,99790.41
2023-03-06T22:03:47.701Z,99779.13
2023-03-06T22:06:25.568Z,99773.41
2023-03-06T22:09:04.808Z,99785.09
2023-03-06T22:11:55.030Z,99775.91
2023-03-06T22:14:40.645Z,99769.25
2023-03-06T22:17:18.259Z,99778.97
2023-03-06T22:19:52.238Z,99773.13
2023-03-06T22:22:32.492Z,99789.44
2023-03-06T22:25:08.142Z,99789.69
2023-03-06T22:28:01.232Z,99776.75
2023-03-06T22:30:40.583Z,99806.31
2023-03-06T22:33:15.840Z,99806.00
2023-03-06T22:36:16.136Z,99808.41
2023-03-06T22:39:00.234Z,99810.81
2023-03-06T22:41:49.235Z,99798.44
2023-03-06T22:44:28.325Z,99802.19
2023-03-06T22:47:07.532Z,99780.19
2023-03-06T22:49:41.050Z,99796.63
2023-03-06T22:52:15.192Z,99805.38
2023-03-06T22:54:56.778Z,99800.59
2023-03-06T22:57:33.462Z,99799.78
2023-03-06T23:00:24.201Z,99798.22
2023-03-06T23:03:05.027Z,99771.00
2023-03-06T23:05:36.965Z,99787.72
2023-03-06T23:08:19.993Z,99798.09
2023-03-06T23:11:00.709Z,99798.56
2023-03-06T23:14:01.841Z,99810.06
2023-03-06T23:17:02.804Z,99809.00
2023-03-06T23:20:16.829Z,99818.06
2023-03-06T23:23:15.129Z,99822.34
2023-03-06T23:25:52.641Z,99830.34
2023-03-06T23:28:30.161Z,99806.72
2023-03-06T23:31:11.128Z,99828.19
2023-03-06T23:34:05.716Z,99832.44
2023-03-06T23:36:46.983Z,99828.59
2023-03-06T23:39:23.229Z,99822.72
2023-03-06T23:42:05.469Z,99829.13
2023-03-06T23:44:42.341Z,99838.47
2023-03-06T23:47:21.029Z,99835.56
2023-03-06T23:50:07.578Z,99845.56
2023-03-06T23:53:17.231Z,99840.84
2023-03-06T23:55:58.089Z,99842.72
2023-03-06T23:58:35.516Z,99830.00
